createdAt,value
2023-02-02T00:02:27.494Z,7.19
2023-02-02T00:05:30.068Z,7.29
2023-02-02T00:08:32.792Z,7.22
2023-02-02T00:11:35.405Z,7.25
2023-02-02T00:14:37.936Z,7.10
2023-02-02T00:17:41.861Z,7.24
2023-02-02T00:20:45.348Z,7.10
2023-02-02T00:23:48.154Z,7.12
2023-02-02T00:26:52.705Z,7.30
2023-02-02T00:29:57.510Z,7.20
2023-02-02T00:33:01.409Z,7.25
2023-02-02T00:36:04.768Z,7.07
2023-02-02T00:39:08.268Z,6.88
2023-02-02T00:42:12.254Z,6.93
2023-02-02T00:45:18.046Z,7.10
2023-02-02T00:48:22.374Z,7.39
2023-02-02T00:51:24.993Z,7.25
2023-02-02T00:54:27.713Z,7.34
2023-02-02T00:57:30.741Z,7.43
2023-02-02T01:00:33.506Z,7.37
2023-02-02T01:03:37.697Z,7.47
2023-02-02T01:06:40.882Z,7.50
2023-02-02T01:09:43.769Z,7.43
2023-02-02T01:12:46.849Z,7.43
2023-02-02T01:15:49.911Z,7.48
2023-02-02T01:18:54.127Z,7.53
2023-02-02T01:21:57.359Z,7.40
2023-02-02T01:25:00.045Z,7.60
2023-02-02T01:28:02.651Z,7.48
2023-02-02T01:31:08.062Z,7.42
2023-02-02T01:34:11.974Z,7.43
2023-02-02T01:37:14.656Z,7.38
2023-02-02T01:40:17.387Z,7.41
2023-02-02T01:43:25.003Z,7.22
2023-02-02T01:46:29.518Z,7.41
2023-02-02T01:49:34.137Z,7.42
2023-02-02T01:52:37.564Z,7.54
2023-02-02T01:55:42.473Z,7.44
2023-02-02T01:58:46.133Z,7.37
2023-02-02T02:01:49.909Z,7.45
2023-02-02T02:04:53.870Z,7.46
2023-02-02T02:08:04.226Z,7.42
2023-02-02T02:11:08.354Z,7.23
2023-02-02T02:14:29.616Z,7.39
2023-02-02T02:17:43.723Z,7.38
2023-02-02T02:21:22.884Z,7.44
2023-02-02T02:25:04.393Z,7.30
2023-02-02T02:28:43.372Z,7.32
2023-02-02T02:32:02.477Z,7.14
2023-02-02T02:35:08.163Z,7.42
2023-02-02T02:38:12.898Z,7.48
2023-02-02T02:41:22.762Z,7.47
2023-02-02T02:44:25.820Z,7.51
2023-02-02T02:47:30.232Z,7.43
2023-02-02T02:50:32.944Z,7.43
2023-02-02T02:53:36.330Z,7.48
2023-02-02T02:56:45.247Z,7.45
2023-02-02T02:59:54.281Z,7.44
2023-02-02T03:03:01.972Z,7.55
2023-02-02T03:06:09.542Z,7.68
2023-02-02T03:09:14.488Z,7.39
2023-02-02T03:12:17.618Z,7.52
2023-02-02T03:15:20.959Z,7.58
2023-02-02T03:18:27.690Z,7.61
2023-02-02T03:21:30.426Z,7.61
2023-02-02T03:24:32.949Z,7.59
2023-02-02T03:27:35.587Z,7.61
2023-02-02T03:30:39.005Z,7.43
2023-02-02T03:33:43.363Z,7.44
2023-02-02T03:36:46.164Z,7.69
2023-02-02T03:39:48.809Z,7.60
2023-02-02T03:42:51.416Z,7.61
2023-02-02T03:45:58.151Z,7.46
2023-02-02T03:49:02.244Z,7.62
2023-02-02T03:52:05.094Z,7.76
2023-02-02T03:55:08.711Z,7.82
2023-02-02T04:01:38.273Z,7.56
2023-02-02T04:04:42.367Z,7.71
2023-02-02T04:07:44.972Z,7.55
2023-02-02T04:10:47.521Z,7.50
2023-02-02T04:13:50.258Z,7.52
2023-02-02T04:16:53.189Z,7.70
2023-02-02T04:19:58.488Z,7.57
2023-02-02T04:23:01.577Z,7.63
2023-02-02T04:26:04.678Z,7.61
2023-02-02T04:29:07.233Z,7.49
2023-02-02T04:32:10.158Z,7.46
2023-02-02T04:35:14.272Z,7.47
2023-02-02T04:38:17.019Z,7.63
2023-02-02T04:41:19.751Z,7.59
2023-02-02T04:44:22.625Z,7.73
2023-02-02T04:47:25.834Z,7.77
2023-02-02T04:50:30.130Z,7.53
2023-02-02T04:53:33.342Z,7.64
2023-02-02T04:56:36.216Z,7.55
2023-02-02T04:59:41.147Z,7.70
2023-02-02T05:02:44.891Z,7.65
2023-02-02T05:05:48.775Z,7.79
2023-02-02T05:08:51.525Z,7.62
2023-02-02T05:11:54.259Z,7.63
2023-02-02T05:14:56.949Z,7.71
2023-02-02T05:17:59.544Z,7.77
2023-02-02T05:21:04.375Z,7.88
2023-02-02T05:24:07.476Z,7.91
2023-02-02T05:27:10.238Z,7.87
2023-02-02T05:30:13.997Z,7.93
2023-02-02T05:33:18.352Z,7.92
2023-02-02T05:36:22.444Z,7.93
2023-02-02T05:39:25.304Z,7.86
2023-02-02T05:42:28.252Z,7.70
2023-02-02T05:45:30.917Z,7.79
2023-02-02T05:48:33.776Z,7.78
2023-02-02T05:51:40.662Z,7.80
2023-02-02T05:54:43.448Z,7.78
2023-02-02T05:57:46.139Z,7.69
2023-02-02T06:00:49.152Z,7.68
2023-02-02T06:03:52.116Z,7.73
2023-02-02T06:06:56.162Z,7.78
2023-02-02T06:09:59.311Z,7.70
2023-02-02T06:13:02.016Z,7.67
2023-02-02T06:16:05.117Z,7.76
2023-02-02T06:19:07.886Z,7.77
2023-02-02T06:22:12.052Z,7.72
2023-02-02T06:25:20.198Z,7.72
2023-02-02T06:28:22.996Z,7.77
2023-02-02T06:31:25.860Z,7.79
2023-02-02T06:34:28.764Z,7.86
2023-02-02T06:37:34.148Z,7.76
2023-02-02T06:40:37.132Z,7.92
2023-02-02T06:43:41.018Z,7.92
2023-02-02T06:46:43.864Z,7.95
2023-02-02T06:49:46.649Z,7.83
2023-02-02T06:52:50.826Z,7.99
2023-02-02T06:55:54.642Z,8.02
2023-02-02T06:58:57.389Z,7.97
2023-02-02T07:02:00.124Z,7.92
2023-02-02T07:05:02.941Z,7.79
2023-02-02T07:08:07.069Z,8.00
2023-02-02T07:11:15.605Z,7.88
2023-02-02T07:14:19.079Z,7.91
2023-02-02T07:17:22.048Z,7.87
2023-02-02T07:20:24.980Z,7.86
2023-02-02T07:23:30.583Z,7.71
2023-02-02T07:26:34.685Z,7.88
2023-02-02T07:29:37.487Z,8.09
2023-02-02T07:32:40.292Z,8.33
2023-02-02T07:35:43.080Z,8.21
2023-02-02T07:38:48.125Z,8.21
2023-02-02T07:41:50.790Z,8.29
2023-02-02T07:44:53.443Z,8.18
2023-02-02T07:47:59.231Z,8.20
2023-02-02T07:51:02.259Z,8.13
2023-02-02T07:54:06.786Z,8.25
2023-02-02T07:57:09.668Z,8.16
2023-02-02T08:00:13.441Z,8.17
2023-02-02T08:03:16.076Z,8.22
2023-02-02T08:06:20.762Z,8.35
2023-02-02T08:09:24.946Z,8.56
2023-02-02T08:12:28.312Z,8.58
2023-02-02T08:15:30.933Z,8.48
2023-02-02T08:18:33.897Z,8.53
2023-02-02T08:21:36.936Z,8.85
2023-02-02T08:24:42.984Z,9.03
2023-02-02T08:27:45.559Z,8.86
2023-02-02T08:30:48.567Z,8.86
2023-02-02T08:33:53.937Z,9.06
2023-02-02T08:36:56.836Z,8.93
2023-02-02T08:40:00.974Z,9.13
2023-02-02T08:43:04.552Z,8.68
2023-02-02T08:46:08.617Z,8.84
2023-02-02T08:49:14.252Z,9.01
2023-02-02T08:52:16.775Z,9.01
2023-02-02T08:55:20.792Z,8.87
2023-02-02T08:58:23.676Z,8.93
2023-02-02T09:01:27.637Z,8.75
2023-02-02T09:04:30.647Z,8.78
2023-02-02T09:07:33.367Z,8.91
2023-02-02T09:10:38.561Z,8.87
2023-02-02T09:13:42.623Z,8.69
2023-02-02T09:16:45.449Z,8.77
2023-02-02T09:19:48.205Z,8.91
2023-02-02T09:22:50.877Z,8.92
2023-02-02T09:25:55.164Z,8.65
2023-02-02T09:28:58.982Z,8.97
2023-02-02T09:32:01.763Z,8.86
2023-02-02T09:35:04.748Z,9.14
2023-02-02T09:38:07.463Z,9.01
2023-02-02T09:41:24.795Z,9.03
2023-02-02T09:44:46.777Z,9.13
2023-02-02T09:47:55.447Z,9.12
2023-02-02T09:50:59.709Z,8.95
2023-02-02T09:54:06.245Z,8.72
2023-02-02T09:57:16.232Z,8.73
2023-02-02T10:00:27.269Z,8.94
2023-02-02T10:03:33.425Z,8.70
2023-02-02T10:06:38.987Z,8.66
2023-02-02T10:09:48.425Z,8.60
2023-02-02T10:12:55.812Z,8.62
2023-02-02T10:16:04.326Z,8.60
2023-02-02T10:19:10.911Z,8.93
2023-02-02T10:22:16.882Z,8.72
2023-02-02T10:25:21.972Z,8.87
2023-02-02T10:28:47.319Z,8.99
2023-02-02T10:31:57.246Z,8.77
2023-02-02T10:35:13.967Z,8.96
2023-02-02T10:38:21.627Z,8.80
2023-02-02T10:41:30.241Z,8.84
2023-02-02T10:44:38.698Z,8.92
2023-02-02T10:47:41.279Z,8.67
2023-02-02T10:50:45.452Z,8.83
2023-02-02T10:53:52.754Z,8.49
2023-02-02T10:56:57.265Z,8.48
2023-02-02T11:00:22.361Z,8.47
2023-02-02T11:03:28.455Z,8.94
2023-02-02T11:06:48.665Z,9.09
2023-02-02T11:09:52.972Z,8.72
2023-02-02T11:12:57.401Z,8.72
2023-02-02T11:16:23.846Z,8.72
2023-02-02T11:19:29.787Z,9.08
2023-02-02T11:22:34.905Z,9.13
2023-02-02T11:25:39.566Z,9.23
2023-02-02T11:28:42.333Z,9.70
2023-02-02T11:31:46.889Z,9.64
2023-02-02T11:34:49.620Z,9.18
2023-02-02T11:38:02.209Z,9.54
2023-02-02T11:41:09.047Z,9.39
2023-02-02T11:44:20.488Z,9.35
2023-02-02T11:47:28.087Z,9.02
2023-02-02T11:50:31.043Z,8.92
2023-02-02T11:53:35.622Z,9.07
2023-02-02T11:56:39.618Z,8.64
2023-02-02T11:59:43.568Z,9.05
2023-02-02T12:02:49.510Z,8.94
2023-02-02T12:05:52.636Z,9.06
2023-02-02T12:08:58.745Z,8.49
2023-02-02T12:12:05.661Z,8.16
2023-02-02T12:15:19.877Z,8.31
2023-02-02T12:18:38.152Z,8.03
2023-02-02T12:21:46.449Z,7.78
2023-02-02T12:24:53.179Z,8.19
2023-02-02T12:27:59.624Z,7.94
2023-02-02T12:31:08.600Z,8.03
2023-02-02T12:34:21.034Z,7.88
2023-02-02T12:37:33.138Z,7.78
2023-02-02T12:41:06.411Z,7.77
2023-02-02T12:44:15.762Z,7.65
2023-02-02T12:47:22.221Z,7.69
2023-02-02T12:50:31.362Z,7.60
2023-02-02T12:54:33.594Z,7.49
2023-02-02T12:57:17.904Z,7.53
2023-02-02T13:00:38.412Z,7.56
2023-02-02T13:03:53.525Z,7.35
2023-02-02T13:07:15.605Z,7.29
2023-02-02T13:10:24.644Z,7.31
2023-02-02T13:13:31.342Z,7.29
2023-02-02T13:16:37.427Z,7.34
2023-02-02T13:19:42.248Z,7.16
2023-02-02T13:22:46.773Z,7.30
2023-02-02T13:25:51.788Z,7.38
2023-02-02T13:28:58.962Z,7.52
2023-02-02T13:32:05.682Z,7.77
2023-02-02T13:35:17.469Z,8.03
2023-02-02T13:38:24.729Z,8.19
2023-02-02T13:41:28.323Z,8.27
2023-02-02T13:44:33.727Z,8.23
2023-02-02T13:47:39.016Z,8.50
2023-02-02T13:50:48.775Z,8.49
2023-02-02T13:54:20.898Z,8.68
2023-02-02T13:57:38.351Z,8.44
2023-02-02T14:00:42.736Z,8.44
2023-02-02T14:03:52.749Z,8.48
2023-02-02T14:06:57.579Z,8.43
2023-02-02T14:10:01.741Z,8.41
2023-02-02T14:13:35.235Z,8.48
2023-02-02T14:16:52.346Z,8.58
2023-02-02T14:19:56.154Z,8.69
2023-02-02T14:22:58.637Z,8.68
2023-02-02T14:26:10.319Z,8.84
2023-02-02T14:29:40.619Z,8.78
2023-02-02T14:32:44.126Z,8.67
2023-02-02T14:36:05.093Z,8.67
2023-02-02T14:39:20.314Z,8.62
2023-02-02T14:42:50.835Z,8.73
2023-02-02T14:46:22.376Z,8.45
2023-02-02T14:49:29.830Z,8.77
2023-02-02T14:52:32.769Z,8.81
2023-02-02T14:55:37.383Z,8.89
2023-02-02T14:58:45.931Z,8.89
2023-02-02T15:01:57.319Z,8.94
2023-02-02T15:05:38.762Z,8.82
2023-02-02T15:08:41.933Z,8.81
2023-02-02T15:12:19.058Z,8.75
2023-02-02T15:15:25.468Z,8.92
2023-02-02T15:18:33.310Z,8.61
2023-02-02T15:21:37.500Z,8.76
2023-02-02T15:24:40.328Z,8.85
2023-02-02T15:27:56.694Z,8.71
2023-02-02T15:31:03.878Z,8.70
2023-02-02T15:34:15.024Z,8.53
2023-02-02T15:37:21.535Z,8.51
2023-02-02T15:40:25.828Z,8.49
2023-02-02T15:43:29.032Z,8.38
2023-02-02T15:46:35.701Z,8.64
2023-02-02T15:49:38.491Z,8.32
2023-02-02T15:52:46.988Z,8.47
2023-02-02T15:55:49.756Z,8.29
2023-02-02T15:58:54.725Z,8.32
2023-02-02T16:02:07.016Z,8.51
2023-02-02T16:05:25.536Z,8.38
2023-02-02T16:08:34.221Z,8.59
2023-02-02T16:11:42.565Z,8.65
2023-02-02T16:14:46.349Z,8.49
2023-02-02T16:18:00.699Z,8.65
2023-02-02T16:21:25.158Z,8.66
2023-02-02T16:24:31.507Z,8.68
2023-02-02T16:27:34.727Z,8.50
2023-02-02T16:30:39.512Z,8.60
2023-02-02T16:33:44.546Z,8.68
2023-02-02T16:37:05.355Z,8.62
2023-02-02T16:40:22.542Z,8.53
2023-02-02T16:43:29.858Z,8.62
2023-02-02T16:46:44.698Z,8.58
2023-02-02T16:49:48.906Z,8.65
2023-02-02T16:52:53.626Z,8.65
2023-02-02T16:55:57.880Z,8.68
2023-02-02T16:59:03.486Z,8.75
2023-02-02T17:02:21.052Z,8.68
2023-02-02T17:05:29.150Z,8.74
2023-02-02T17:08:33.983Z,8.40
2023-02-02T17:11:37.111Z,8.46
2023-02-02T17:14:52.415Z,8.43
2023-02-02T17:17:55.182Z,8.67
2023-02-02T17:21:04.147Z,8.53
2023-02-02T17:24:07.419Z,8.45
2023-02-02T17:27:14.713Z,8.42
2023-02-02T17:30:19.723Z,8.48
2023-02-02T17:33:22.584Z,8.24
2023-02-02T17:36:26.703Z,8.42
2023-02-02T17:39:29.404Z,8.45
2023-02-02T17:42:36.029Z,8.43
2023-02-02T17:45:38.977Z,8.20
2023-02-02T17:48:42.033Z,8.23
2023-02-02T17:51:45.971Z,8.18
2023-02-02T17:54:48.906Z,8.13
2023-02-02T17:57:53.169Z,8.10
2023-02-02T18:00:59.102Z,8.35
2023-02-02T18:04:01.974Z,8.29
2023-02-02T18:07:07.808Z,8.30
2023-02-02T18:10:12.513Z,8.47
2023-02-02T18:13:16.510Z,8.51
2023-02-02T18:16:19.837Z,8.42
2023-02-02T18:19:22.610Z,8.28
2023-02-02T18:22:27.230Z,8.32
2023-02-02T18:25:30.540Z,8.38
2023-02-02T18:28:34.949Z,8.42
2023-02-02T18:31:38.433Z,8.44
2023-02-02T18:34:43.449Z,8.32
2023-02-02T18:37:49.781Z,8.23
2023-02-02T18:40:56.137Z,8.34
2023-02-02T18:44:00.222Z,8.34
2023-02-02T18:47:02.834Z,8.47
2023-02-02T18:50:06.177Z,8.27
2023-02-02T18:53:10.353Z,8.24
2023-02-02T18:56:14.378Z,8.33
2023-02-02T18:59:17.247Z,8.30
2023-02-02T19:02:21.597Z,8.20
2023-02-02T19:05:41.742Z,8.27
2023-02-02T19:08:46.022Z,8.24
2023-02-02T19:11:50.481Z,8.26
2023-02-02T19:14:53.110Z,8.41
2023-02-02T19:17:56.300Z,8.11
2023-02-02T19:20:58.914Z,8.09
2023-02-02T19:24:02.813Z,8.02
2023-02-02T19:27:12.204Z,8.16
2023-02-02T19:30:20.202Z,8.20
2023-02-02T19:33:24.574Z,8.16
2023-02-02T19:36:28.469Z,8.31
2023-02-02T19:39:32.790Z,8.40
2023-02-02T19:42:35.573Z,8.20
2023-02-02T19:45:39.698Z,8.37
2023-02-02T19:48:43.244Z,8.37
2023-02-02T19:51:47.156Z,8.41
2023-02-02T19:54:51.474Z,8.40
2023-02-02T19:57:55.371Z,8.45
2023-02-02T20:00:58.509Z,8.38
2023-02-02T20:04:04.043Z,8.45
2023-02-02T20:07:11.566Z,8.40
2023-02-02T20:10:22.186Z,8.26
2023-02-02T20:13:25.805Z,8.22
2023-02-02T20:16:37.250Z,8.29
2023-02-02T20:19:42.620Z,8.21
2023-02-02T20:22:45.426Z,8.17
2023-02-02T20:25:49.337Z,8.29
2023-02-02T20:28:53.415Z,8.04
2023-02-02T20:31:58.177Z,8.06
2023-02-02T20:35:01.051Z,7.90
2023-02-02T20:38:04.095Z,8.06
2023-02-02T20:41:08.340Z,7.92
2023-02-02T20:44:11.018Z,7.74
2023-02-02T20:47:13.702Z,7.73
2023-02-02T20:50:19.264Z,7.68
2023-02-02T20:53:22.374Z,7.53
2023-02-02T20:56:26.694Z,7.53
2023-02-02T20:59:29.527Z,7.58
2023-02-02T21:02:33.216Z,7.37
2023-02-02T21:05:36.373Z,7.43
2023-02-02T21:08:39.669Z,7.41
2023-02-02T21:11:43.997Z,7.43
2023-02-02T21:14:47.011Z,7.42
2023-02-02T21:17:49.994Z,7.48
2023-02-02T21:20:52.699Z,7.58
2023-02-02T21:23:56.289Z,7.44
2023-02-02T21:27:02.202Z,7.34
2023-02-02T21:30:05.436Z,7.49
2023-02-02T21:33:08.377Z,7.63
2023-02-02T21:36:24.465Z,7.54
2023-02-02T21:39:30.221Z,7.57
2023-02-02T21:42:35.485Z,7.69
2023-02-02T21:45:39.671Z,7.75
2023-02-02T21:48:42.539Z,7.75
2023-02-02T21:51:45.417Z,7.69
2023-02-02T21:54:48.844Z,7.70
2023-02-02T21:57:53.088Z,7.78
2023-02-02T22:00:59.541Z,7.69
2023-02-02T22:04:02.276Z,7.81
2023-02-02T22:07:13.186Z,7.72
2023-02-02T22:10:37.232Z,7.79
2023-02-02T22:13:41.515Z,7.72
2023-02-02T22:16:45.752Z,7.82
2023-02-02T22:19:48.773Z,7.88
2023-02-02T22:22:52.784Z,7.84
2023-02-02T22:25:56.692Z,7.70
2023-02-02T22:29:00.672Z,7.60
2023-02-02T22:32:03.969Z,7.69
2023-02-02T22:35:06.951Z,7.76
2023-02-02T22:38:10.096Z,7.70
2023-02-02T22:41:12.805Z,7.71
2023-02-02T22:44:16.799Z,7.72
2023-02-02T22:47:19.371Z,7.78
2023-02-02T22:50:24.118Z,7.73
2023-02-02T22:53:27.270Z,7.70
2023-02-02T22:56:29.948Z,7.73
2023-02-02T22:59:33.875Z,7.85
2023-02-02T23:02:36.487Z,7.78
2023-02-02T23:05:39.174Z,7.63
2023-02-02T23:08:42.005Z,7.58
2023-02-02T23:11:45.605Z,7.64
2023-02-02T23:14:49.746Z,7.52
2023-02-02T23:17:52.744Z,7.53
2023-02-02T23:20:55.327Z,7.46
2023-02-02T23:23:58.089Z,7.52
2023-02-02T23:27:00.793Z,7.47
2023-02-02T23:30:05.967Z,7.48
2023-02-02T23:33:08.566Z,7.36
2023-02-02T23:36:11.335Z,7.43
2023-02-02T23:39:14.011Z,7.58
2023-02-02T23:42:16.676Z,7.43
2023-02-02T23:45:20.622Z,7.56
2023-02-02T23:48:23.247Z,7.46
2023-02-02T23:51:26.036Z,7.44
2023-02-02T23:54:29.033Z,7.53
2023-02-02T23:57:33.713Z,7.51
